createdAt,value
2018-11-23T00:00:12.748Z,1019.17
2018-11-23T00:01:22.444Z,1019.2
2018-11-23T00:02:32.149Z,1019.19
2018-11-23T00:03:41.106Z,1019.22
2018-11-23T00:04:51.060Z,1019.22
2018-11-23T00:06:01.003Z,1019.21
2018-11-23T00:07:10.445Z,1019.22
2018-11-23T00:08:19.464Z,1019.22
2018-11-23T00:09:29.169Z,1019.26
2018-11-23T00:10:38.861Z,1019.27
2018-11-23T00:11:48.303Z,1019.26
2018-11-23T00:12:57.995Z,1019.24
2018-11-23T00:14:07.196Z,1019.27
2018-11-23T00:15:16.895Z,1019.22
2018-11-23T00:16:26.589Z,1019.28
2018-11-23T00:17:36.304Z,1019.24
2018-11-23T00:18:46.007Z,1019.22
2018-11-23T00:19:55.707Z,1019.21
2018-11-23T00:21:05.190Z,1019.17
2018-11-23T00:22:14.637Z,1019.16
2018-11-23T00:23:24.333Z,1019.17
2018-11-23T00:24:33.545Z,1019.13
2018-11-23T00:25:43.500Z,1019.11
2018-11-23T00:26:52.992Z,1019.12
2018-11-23T00:28:02.695Z,1019.18
2018-11-23T00:29:12.159Z,1019.14
2018-11-23T00:30:22.104Z,1019.15
2018-11-23T00:31:31.815Z,1019.13
2018-11-23T00:32:41.219Z,1019.16
2018-11-23T00:33:50.928Z,1019.17
2018-11-23T00:35:00.862Z,1019.17
2018-11-23T00:36:10.324Z,1019.09
2018-11-23T00:37:20.030Z,1019.15
2018-11-23T00:38:29.735Z,1019.11
2018-11-23T00:39:38.932Z,1019.1
2018-11-23T00:40:48.882Z,1019.09
2018-11-23T00:41:58.591Z,1019.14
2018-11-23T00:43:07.805Z,1019.12
2018-11-23T00:44:17.495Z,1019.12
2018-11-23T00:45:27.186Z,1019.17
2018-11-23T00:46:43.562Z,1019.1
2018-11-23T00:47:53.506Z,1019.16
2018-11-23T00:49:03.482Z,1019.15
2018-11-23T00:50:13.429Z,1019.13
2018-11-23T00:51:23.137Z,1019.08
2018-11-23T00:52:33.107Z,1019.11
2018-11-23T00:53:43.061Z,1019.15
2018-11-23T00:54:52.501Z,1019.13
2018-11-23T00:56:01.946Z,1019.09
2018-11-23T00:57:11.888Z,1019.1
2018-11-23T00:58:21.849Z,1019.12
2018-11-23T00:59:31.043Z,1019.1
2018-11-23T01:00:41.281Z,1019.06
2018-11-23T01:01:51.243Z,1019.11
2018-11-23T01:03:00.699Z,1019.14
2018-11-23T01:04:10.398Z,1019.13
2018-11-23T01:05:20.354Z,1019.12
2018-11-23T01:06:30.055Z,1019.11
2018-11-23T01:07:39.779Z,1019.15
2018-11-23T01:08:49.472Z,1019.13
2018-11-23T01:09:58.666Z,1019.13
2018-11-23T01:11:08.360Z,1019.08
2018-11-23T01:12:18.313Z,1019.11
2018-11-23T01:13:28.017Z,1019.06
2018-11-23T01:14:37.495Z,1019.04
2018-11-23T01:15:47.453Z,1019.03
2018-11-23T01:16:57.406Z,1018.98
2018-11-23T01:18:06.863Z,1018.98
2018-11-23T01:19:16.346Z,1018.94
2018-11-23T01:20:26.283Z,1018.95
2018-11-23T01:21:35.978Z,1018.98
2018-11-23T01:22:45.181Z,1019.01
2018-11-23T01:23:54.632Z,1018.96
2018-11-23T01:25:03.860Z,1019.03
2018-11-23T01:26:13.309Z,1019.01
2018-11-23T01:27:22.993Z,1019
2018-11-23T01:28:32.688Z,1018.99
2018-11-23T01:29:42.139Z,1018.99
2018-11-23T01:30:51.846Z,1018.96
2018-11-23T01:32:01.546Z,1018.97
2018-11-23T01:33:11.497Z,1019.01
2018-11-23T01:34:21.205Z,1019.04
2018-11-23T01:35:31.158Z,1019.05
2018-11-23T01:36:41.093Z,1019.01
2018-11-23T01:37:50.787Z,1018.99
2018-11-23T01:39:00.743Z,1018.92
2018-11-23T01:40:09.943Z,1018.93
2018-11-23T01:41:19.700Z,1018.91
2018-11-23T01:42:29.399Z,1018.88
2018-11-23T01:43:39.100Z,1018.86
2018-11-23T01:44:49.055Z,1018.83
2018-11-23T01:45:58.503Z,1018.8
2018-11-23T01:47:08.190Z,1018.77
2018-11-23T01:48:18.086Z,1018.8
2018-11-23T01:49:27.781Z,1018.82
2018-11-23T01:50:37.474Z,1018.83
2018-11-23T01:51:47.169Z,1018.78
2018-11-23T01:52:57.123Z,1018.81
2018-11-23T01:54:06.840Z,1018.8
2018-11-23T01:55:16.535Z,1018.76
2018-11-23T01:56:26.492Z,1018.7
2018-11-23T01:57:36.436Z,1018.65
2018-11-23T01:58:46.132Z,1018.65
2018-11-23T01:59:56.083Z,1018.68
2018-11-23T02:01:05.790Z,1018.71
2018-11-23T02:02:15.480Z,1018.69
2018-11-23T02:03:25.166Z,1018.77
2018-11-23T02:04:34.609Z,1018.72
2018-11-23T02:05:43.788Z,1018.73
2018-11-23T02:06:52.987Z,1018.76
2018-11-23T02:08:02.672Z,1018.72
2018-11-23T02:09:11.859Z,1018.74
2018-11-23T02:10:21.558Z,1018.77
2018-11-23T02:11:31.500Z,1018.71
2018-11-23T02:12:41.461Z,1018.75
2018-11-23T02:13:50.924Z,1018.73
2018-11-23T02:15:00.123Z,1018.76
2018-11-23T02:16:09.816Z,1018.73
2018-11-23T02:17:19.522Z,1018.74
2018-11-23T02:18:29.471Z,1018.72
2018-11-23T02:19:39.426Z,1018.71
2018-11-23T02:20:49.377Z,1018.7
2018-11-23T02:21:59.075Z,1018.69
2018-11-23T02:23:09.047Z,1018.68
2018-11-23T02:24:18.493Z,1018.63
2018-11-23T02:25:27.697Z,1018.62
2018-11-23T02:26:37.642Z,1018.54
2018-11-23T02:27:47.337Z,1018.57
2018-11-23T02:28:56.810Z,1018.57
2018-11-23T02:30:06.750Z,1018.51
2018-11-23T02:31:16.717Z,1018.55
2018-11-23T02:32:26.416Z,1018.5
2018-11-23T02:33:36.107Z,1018.47
2018-11-23T02:34:45.569Z,1018.48
2018-11-23T02:35:55.523Z,1018.52
2018-11-23T02:37:05.241Z,1018.49
2018-11-23T02:38:15.179Z,1018.49
2018-11-23T02:39:25.128Z,1018.46
2018-11-23T02:40:34.576Z,1018.51
2018-11-23T02:41:43.769Z,1018.44
2018-11-23T02:42:53.460Z,1018.44
2018-11-23T02:44:03.407Z,1018.47
2018-11-23T02:45:13.103Z,1018.42
2018-11-23T02:46:22.812Z,1018.42
2018-11-23T02:47:32.512Z,1018.44
2018-11-23T02:48:41.975Z,1018.39
2018-11-23T02:49:51.671Z,1018.35
2018-11-23T02:51:01.634Z,1018.38
2018-11-23T02:52:11.336Z,1018.41
2018-11-23T02:53:21.279Z,1018.39
2018-11-23T02:54:30.979Z,1018.36
2018-11-23T02:55:40.926Z,1018.35
2018-11-23T02:56:50.634Z,1018.36
2018-11-23T02:58:00.071Z,1018.33
2018-11-23T02:59:09.274Z,1018.31
2018-11-23T03:00:24.257Z,1018.28
2018-11-23T03:01:33.963Z,1018.31
2018-11-23T03:02:43.920Z,1018.34
2018-11-23T03:03:53.377Z,1018.31
2018-11-23T03:05:03.072Z,1018.33
2018-11-23T03:06:12.516Z,1018.29
2018-11-23T03:07:21.965Z,1018.32
2018-11-23T03:08:31.660Z,1018.28
2018-11-23T03:09:41.351Z,1018.29
2018-11-23T03:10:51.304Z,1018.28
2018-11-23T03:12:01.157Z,1018.27
2018-11-23T03:13:11.093Z,1018.27
2018-11-23T03:14:20.792Z,1018.32
2018-11-23T03:15:30.736Z,1018.32
2018-11-23T03:16:40.680Z,1018.29
2018-11-23T03:17:49.877Z,1018.27
2018-11-23T03:18:59.657Z,1018.29
2018-11-23T03:20:09.112Z,1018.33
2018-11-23T03:21:19.063Z,1018.29
2018-11-23T03:22:29.006Z,1018.27
2018-11-23T03:23:38.704Z,1018.28
2018-11-23T03:24:48.152Z,1018.33
2018-11-23T03:25:57.856Z,1018.31
2018-11-23T03:27:07.554Z,1018.33
2018-11-23T03:28:17.504Z,1018.32
2018-11-23T03:29:27.198Z,1018.31
2018-11-23T03:30:36.468Z,1018.28
2018-11-23T03:31:45.924Z,1018.3
2018-11-23T03:32:55.886Z,1018.33
2018-11-23T03:34:05.853Z,1018.3
2018-11-23T03:35:15.306Z,1018.26
2018-11-23T03:36:25.245Z,1018.27
2018-11-23T03:37:34.948Z,1018.21
2018-11-23T03:38:45.482Z,1018.22
2018-11-23T03:39:55.426Z,1018.24
2018-11-23T03:41:05.124Z,1018.18
2018-11-23T03:42:15.067Z,1018.19
2018-11-23T03:43:25.013Z,1018.18
2018-11-23T03:44:34.707Z,1018.18
2018-11-23T03:45:44.658Z,1018.23
2018-11-23T03:46:53.856Z,1018.22
2018-11-23T03:48:03.797Z,1018.22
2018-11-23T03:49:13.498Z,1018.21
2018-11-23T03:50:22.947Z,1018.18
2018-11-23T03:51:32.389Z,1018.15
2018-11-23T03:52:42.087Z,1018.17
2018-11-23T03:53:52.037Z,1018.18
2018-11-23T03:55:01.735Z,1018.17
2018-11-23T03:56:11.688Z,1018.17
2018-11-23T03:57:21.385Z,1018.18
2018-11-23T03:58:31.332Z,1018.2
2018-11-23T03:59:41.024Z,1018.16
2018-11-23T04:00:50.712Z,1018.2
2018-11-23T04:02:00.406Z,1018.18
2018-11-23T04:03:10.114Z,1018.2
2018-11-23T04:04:20.093Z,1018.17
2018-11-23T04:05:29.793Z,1018.19
2018-11-23T04:06:39.592Z,1018.16
2018-11-23T04:07:49.536Z,1018.13
2018-11-23T04:08:59.243Z,1018.15
2018-11-23T04:10:08.437Z,1018.13
2018-11-23T04:11:18.139Z,1018.09
2018-11-23T04:12:27.331Z,1018.14
2018-11-23T04:13:37.269Z,1018.15
2018-11-23T04:14:47.215Z,1018.11
2018-11-23T04:15:56.668Z,1018.12
2018-11-23T04:17:06.614Z,1018.13
2018-11-23T04:18:16.561Z,1018.09
2018-11-23T04:19:26.504Z,1018.14
2018-11-23T04:20:36.191Z,1018.12
2018-11-23T04:21:45.653Z,1018.16
2018-11-23T04:22:55.602Z,1018.13
2018-11-23T04:24:05.050Z,1018.13
2018-11-23T04:25:14.506Z,1018.12
2018-11-23T04:26:24.878Z,1018.12
2018-11-23T04:27:34.672Z,1018.12
2018-11-23T04:28:44.145Z,1018.1
2018-11-23T04:29:54.085Z,1018.11
2018-11-23T04:31:03.777Z,1018.12
2018-11-23T04:32:13.479Z,1018.11
2018-11-23T04:33:23.176Z,1018.11
2018-11-23T04:34:32.622Z,1018.13
2018-11-23T04:35:42.574Z,1018.13
2018-11-23T04:36:52.509Z,1018.1
2018-11-23T04:38:01.956Z,1018.16
2018-11-23T04:39:11.908Z,1018.16
2018-11-23T04:40:21.105Z,1018.16
2018-11-23T04:41:30.813Z,1018.19
2018-11-23T04:42:46.832Z,1018.17
2018-11-23T04:43:56.788Z,1018.22
2018-11-23T04:45:06.482Z,1018.15
2018-11-23T04:46:16.180Z,1018.16
2018-11-23T04:47:25.631Z,1018.19
2018-11-23T04:48:35.567Z,1018.15
2018-11-23T04:49:45.012Z,1018.2
2018-11-23T04:50:54.707Z,1018.21
2018-11-23T04:52:04.184Z,1018.2
2018-11-23T04:53:13.885Z,1018.18
2018-11-23T04:54:23.837Z,1018.23
2018-11-23T04:55:33.279Z,1018.19
2018-11-23T04:56:42.734Z,1018.25
2018-11-23T04:57:53.702Z,1018.21
2018-11-23T04:59:03.668Z,1018.24
2018-11-23T05:00:13.361Z,1018.22
2018-11-23T05:01:23.052Z,1018.19
2018-11-23T05:02:32.497Z,1018.23
2018-11-23T05:03:41.697Z,1018.21
2018-11-23T05:04:51.130Z,1018.17
2018-11-23T05:06:00.829Z,1018.2
2018-11-23T05:07:10.544Z,1018.21
2018-11-23T05:08:20.242Z,1018.15
2018-11-23T05:09:29.441Z,1018.2
2018-11-23T05:10:39.384Z,1018.23
2018-11-23T05:11:50.277Z,1018.15
2018-11-23T05:13:00.278Z,1018.17
2018-11-23T05:14:10.226Z,1018.18
2018-11-23T05:15:20.181Z,1018.14
2018-11-23T05:16:30.186Z,1018.15
2018-11-23T05:17:39.639Z,1018.16
2018-11-23T05:18:49.591Z,1018.1
2018-11-23T05:19:59.536Z,1018.11
2018-11-23T05:21:08.975Z,1018.18
2018-11-23T05:22:18.947Z,1018.16
2018-11-23T05:23:28.647Z,1018.14
2018-11-23T05:24:38.097Z,1018.18
2018-11-23T05:25:47.783Z,1018.16
2018-11-23T05:26:57.480Z,1018.16
2018-11-23T05:28:07.430Z,1018.12
2018-11-23T05:29:17.118Z,1018.1
2018-11-23T05:30:27.079Z,1018.08
2018-11-23T05:31:37.040Z,1018.08
2018-11-23T05:32:46.757Z,1018.07
2018-11-23T05:33:56.460Z,1018.08
2018-11-23T05:35:05.907Z,1018.1
2018-11-23T05:36:15.606Z,1018.07
2018-11-23T05:37:25.051Z,1018.1
2018-11-23T05:38:35.003Z,1018.05
2018-11-23T05:39:44.734Z,1018.05
2018-11-23T05:40:54.689Z,1018.05
2018-11-23T05:42:04.389Z,1018.06
2018-11-23T05:43:14.099Z,1018.09
2018-11-23T05:44:23.305Z,1018.07
2018-11-23T05:45:33.036Z,1018.06
2018-11-23T05:46:42.988Z,1018.03
2018-11-23T05:47:52.952Z,1018.1
2018-11-23T05:49:02.908Z,1018.06
2018-11-23T05:50:12.366Z,1018.05
2018-11-23T05:51:22.082Z,1018.04
2018-11-23T05:52:31.532Z,1018.05
2018-11-23T05:53:40.984Z,1018.07
2018-11-23T05:54:50.427Z,1018.05
2018-11-23T05:55:59.884Z,1018.1
2018-11-23T05:57:09.578Z,1018.05
2018-11-23T05:58:19.518Z,1018.06
2018-11-23T05:59:29.198Z,1018.09
2018-11-23T06:00:38.895Z,1018.04
2018-11-23T06:01:48.839Z,1018.05
2018-11-23T06:02:58.788Z,1018.03
2018-11-23T06:04:08.502Z,1018.01
2018-11-23T06:05:17.946Z,1018.03
2018-11-23T06:06:27.655Z,1018.04
2018-11-23T06:07:42.829Z,1018
2018-11-23T06:08:52.771Z,1018
2018-11-23T06:10:02.470Z,1018.01
2018-11-23T06:11:12.172Z,1018.02
2018-11-23T06:12:21.615Z,1018.04
2018-11-23T06:13:31.306Z,1018.04
2018-11-23T06:14:40.755Z,1018.05
2018-11-23T06:15:50.709Z,1018.05
2018-11-23T06:17:00.445Z,1018.03
2018-11-23T06:18:10.174Z,1018.08
2018-11-23T06:19:19.630Z,1018.09
2018-11-23T06:20:29.579Z,1018.06
2018-11-23T06:21:39.047Z,1018.06
2018-11-23T06:22:48.523Z,1018.09
2018-11-23T06:23:58.250Z,1018.09
2018-11-23T06:25:07.953Z,1018.11
2018-11-23T06:26:17.667Z,1018.07
2018-11-23T06:27:27.136Z,1018.07
2018-11-23T06:28:37.070Z,1018.02
2018-11-23T06:29:47.013Z,1018.03
2018-11-23T06:30:56.704Z,1018.05
2018-11-23T06:32:06.162Z,1018.05
2018-11-23T06:33:16.120Z,1018.08
2018-11-23T06:34:25.574Z,1018.05
2018-11-23T06:35:35.525Z,1018.03
2018-11-23T06:36:44.971Z,1018.02
2018-11-23T06:37:54.701Z,1018.05
2018-11-23T06:39:04.659Z,1018.08
2018-11-23T06:40:14.116Z,1018.08
2018-11-23T06:41:24.075Z,1018.07
2018-11-23T06:42:33.528Z,1018.09
2018-11-23T06:43:49.459Z,1018.05
2018-11-23T06:44:59.143Z,1018.07
2018-11-23T06:46:08.849Z,1018.13
2018-11-23T06:47:18.571Z,1018.12
2018-11-23T06:48:28.665Z,1018.09
2018-11-23T06:49:38.118Z,1018.17
2018-11-23T06:50:48.049Z,1018.15
2018-11-23T06:51:57.757Z,1018.17
2018-11-23T06:53:07.711Z,1018.17
2018-11-23T06:54:17.369Z,1018.15
2018-11-23T06:55:27.072Z,1018.18
2018-11-23T06:56:36.768Z,1018.12
2018-11-23T06:57:46.715Z,1018.15
2018-11-23T06:58:56.680Z,1018.14
2018-11-23T07:00:06.117Z,1018.11
2018-11-23T07:01:15.836Z,1018.1
2018-11-23T07:02:25.553Z,1018.14
2018-11-23T07:03:34.997Z,1018.1
2018-11-23T07:04:44.698Z,1018.09
2018-11-23T07:05:54.413Z,1018.12
2018-11-23T07:07:04.150Z,1018.14
2018-11-23T07:08:14.158Z,1018.12
2018-11-23T07:09:23.877Z,1018.13
2018-11-23T07:10:33.861Z,1018.1
2018-11-23T07:11:43.577Z,1018.11
2018-11-23T07:12:53.021Z,1018.15
2018-11-23T07:14:03.957Z,1018.15
2018-11-23T07:15:14.081Z,1018.11
2018-11-23T07:16:24.833Z,1018.14
2018-11-23T07:17:34.303Z,1018.14
2018-11-23T07:18:44.013Z,1018.12
2018-11-23T07:19:53.990Z,1018.17
2018-11-23T07:21:03.963Z,1018.09
2018-11-23T07:22:13.681Z,1018.14
2018-11-23T07:23:23.637Z,1018.15
2018-11-23T07:24:33.354Z,1018.14
2018-11-23T07:25:43.526Z,1018.15
2018-11-23T07:26:53.492Z,1018.11
2018-11-23T07:28:03.221Z,1018.17
2018-11-23T07:29:20.348Z,1018.16
2018-11-23T07:30:30.345Z,1018.14
2018-11-23T07:31:39.843Z,1018.09
2018-11-23T07:32:49.585Z,1018.12
2018-11-23T07:33:59.049Z,1018.11
2018-11-23T07:35:08.540Z,1018.11
2018-11-23T07:36:18.257Z,1018.08
2018-11-23T07:37:27.471Z,1018.09
2018-11-23T07:38:36.922Z,1018.07
2018-11-23T07:39:46.643Z,1018.05
2018-11-23T07:40:56.618Z,1018.03
2018-11-23T07:42:06.345Z,1018.06
2018-11-23T07:43:16.317Z,1018.03
2018-11-23T07:44:25.773Z,1018.07
2018-11-23T07:45:35.283Z,1018.04
2018-11-23T07:46:45.248Z,1018.03
2018-11-23T07:47:54.961Z,1018.04
2018-11-23T07:49:04.439Z,1018.09
2018-11-23T07:50:14.147Z,1018.06
2018-11-23T07:51:23.625Z,1018.1
2018-11-23T07:52:39.645Z,1018.1
2018-11-23T07:53:49.104Z,1018.09
2018-11-23T07:54:59.077Z,1018.09
2018-11-23T07:56:08.781Z,1018.11
2018-11-23T07:57:18.044Z,1018.09
2018-11-23T07:58:27.999Z,1018.06
2018-11-23T07:59:38.009Z,1018.08
2018-11-23T08:00:47.467Z,1018.08
2018-11-23T08:01:56.920Z,1018.04
2018-11-23T08:03:06.663Z,1018.04
2018-11-23T08:04:16.378Z,1018.02
2018-11-23T08:05:26.093Z,1018.01
2018-11-23T08:06:36.093Z,1018.01
2018-11-23T08:07:45.838Z,1018.06
2018-11-23T08:08:55.819Z,1018.02
2018-11-23T08:10:05.782Z,1018.02
2018-11-23T08:11:15.806Z,1018.02
2018-11-23T08:12:25.504Z,1018.02
2018-11-23T08:13:34.974Z,1018.05
2018-11-23T08:14:44.465Z,1018.01
2018-11-23T08:15:54.201Z,1018.02
2018-11-23T08:17:04.196Z,1017.97
2018-11-23T08:18:14.206Z,1017.99
2018-11-23T08:19:23.677Z,1018
2018-11-23T08:20:32.651Z,1018.01
2018-11-23T08:21:42.383Z,1017.99
2018-11-23T08:22:51.865Z,1017.94
2018-11-23T08:24:01.922Z,1017.96
2018-11-23T08:25:11.914Z,1017.96
2018-11-23T08:26:21.406Z,1017.96
2018-11-23T08:27:31.386Z,1017.95
2018-11-23T08:28:41.374Z,1017.94
2018-11-23T08:29:51.395Z,1017.99
2018-11-23T08:31:01.369Z,1017.98
2018-11-23T08:32:11.347Z,1017.99
2018-11-23T08:33:21.094Z,1017.96
2018-11-23T08:34:30.568Z,1017.92
2018-11-23T08:35:40.352Z,1017.95
2018-11-23T08:36:50.599Z,1017.9
2018-11-23T08:38:00.578Z,1017.87
2018-11-23T08:39:09.806Z,1017.89
2018-11-23T08:40:19.036Z,1017.85
2018-11-23T08:41:28.804Z,1017.81
2018-11-23T08:42:38.763Z,1017.8
2018-11-23T08:43:48.554Z,1017.87
2018-11-23T08:44:58.537Z,1017.86
2018-11-23T08:46:08.252Z,1017.87
2018-11-23T08:47:17.995Z,1017.83
2018-11-23T08:48:27.476Z,1017.89
2018-11-23T08:49:37.173Z,1017.88
2018-11-23T08:50:47.378Z,1017.89
2018-11-23T08:51:56.861Z,1017.85
2018-11-23T08:53:07.092Z,1017.84
2018-11-23T08:54:16.612Z,1017.83
2018-11-23T08:55:26.614Z,1017.81
2018-11-23T08:56:36.561Z,1017.83
2018-11-23T08:57:46.529Z,1017.8
2018-11-23T08:58:56.472Z,1017.82
2018-11-23T09:00:05.951Z,1017.83
2018-11-23T09:01:15.424Z,1017.82
2018-11-23T09:02:25.383Z,1017.8
2018-11-23T09:03:35.355Z,1017.81
2018-11-23T09:04:44.840Z,1017.87
2018-11-23T09:05:54.581Z,1017.86
2018-11-23T09:07:04.072Z,1017.85
2018-11-23T09:08:14.116Z,1017.85
2018-11-23T09:09:24.097Z,1017.83
2018-11-23T09:10:34.473Z,1017.83
2018-11-23T09:11:44.690Z,1017.79
2018-11-23T09:12:54.195Z,1017.79
2018-11-23T09:14:03.912Z,1017.83
2018-11-23T09:15:13.613Z,1017.82
2018-11-23T09:16:23.367Z,1017.81
2018-11-23T09:17:33.607Z,1017.83
2018-11-23T09:18:42.822Z,1017.76
2018-11-23T09:19:52.542Z,1017.78
2018-11-23T09:21:02.590Z,1017.82
2018-11-23T09:22:12.594Z,1017.82
2018-11-23T09:23:28.638Z,1017.83
2018-11-23T09:24:38.371Z,1017.79
2018-11-23T09:25:48.357Z,1017.81
2018-11-23T09:26:58.087Z,1017.78
2018-11-23T09:28:07.572Z,1017.82
2018-11-23T09:29:17.290Z,1017.84
2018-11-23T09:30:27.011Z,1017.82
2018-11-23T09:31:37.007Z,1017.84
2018-11-23T09:32:46.789Z,1017.81
2018-11-23T09:33:56.774Z,1017.82
2018-11-23T09:35:06.229Z,1017.83
2018-11-23T09:36:16.188Z,1017.83
2018-11-23T09:37:25.680Z,1017.83
2018-11-23T09:38:35.430Z,1017.82
2018-11-23T09:39:45.187Z,1017.81
2018-11-23T09:40:54.967Z,1017.83
2018-11-23T09:42:04.498Z,1017.77
2018-11-23T09:43:14.466Z,1017.77
2018-11-23T09:44:24.238Z,1017.74
2018-11-23T09:45:34.309Z,1017.74
2018-11-23T09:46:43.769Z,1017.71
2018-11-23T09:47:53.475Z,1017.75
2018-11-23T09:49:03.207Z,1017.69
2018-11-23T09:50:12.914Z,1017.71
2018-11-23T09:51:22.880Z,1017.7
2018-11-23T09:52:32.783Z,1017.69
2018-11-23T09:53:42.501Z,1017.68
2018-11-23T09:54:52.205Z,1017.72
2018-11-23T09:56:02.243Z,1017.68
2018-11-23T09:57:11.963Z,1017.7
2018-11-23T09:58:21.673Z,1017.68
2018-11-23T09:59:31.391Z,1017.69
2018-11-23T10:00:41.137Z,1017.71
2018-11-23T10:01:50.611Z,1017.67
2018-11-23T10:03:00.326Z,1017.66
2018-11-23T10:04:10.325Z,1017.63
2018-11-23T10:05:19.830Z,1017.55
2018-11-23T10:06:29.801Z,1017.59
2018-11-23T10:07:39.823Z,1017.55
2018-11-23T10:08:49.286Z,1017.52
2018-11-23T10:09:59.031Z,1017.5
2018-11-23T10:11:08.742Z,1017.5
2018-11-23T10:12:18.216Z,1017.51
2018-11-23T10:13:27.749Z,1017.51
2018-11-23T10:14:37.482Z,1017.53
2018-11-23T10:15:47.200Z,1017.47
2018-11-23T10:16:56.909Z,1017.45
2018-11-23T10:18:06.649Z,1017.47
2018-11-23T10:19:16.641Z,1017.49
2018-11-23T10:20:26.581Z,1017.48
2018-11-23T10:21:35.821Z,1017.42
2018-11-23T10:22:45.812Z,1017.44
2018-11-23T10:23:55.757Z,1017.43
2018-11-23T10:25:05.510Z,1017.4
2018-11-23T10:26:14.516Z,1017.37
2018-11-23T10:27:24.477Z,1017.41
2018-11-23T10:28:34.188Z,1017.43
2018-11-23T10:29:43.635Z,1017.37
2018-11-23T10:30:58.127Z,1017.36
2018-11-23T10:32:08.080Z,1017.37
2018-11-23T10:33:18.043Z,1017.4
2018-11-23T10:34:31.298Z,1017.39
2018-11-23T10:35:41.269Z,1017.38
2018-11-23T10:36:51.276Z,1017.36
2018-11-23T10:38:00.977Z,1017.33
2018-11-23T10:39:11.019Z,1017.43
2018-11-23T10:40:20.803Z,1017.39
2018-11-23T10:41:30.526Z,1017.41
2018-11-23T10:42:40.244Z,1017.39
2018-11-23T10:43:50.228Z,1017.38
2018-11-23T10:45:00.191Z,1017.38
2018-11-23T10:46:10.152Z,1017.38
2018-11-23T10:47:19.357Z,1017.35
2018-11-23T10:48:29.343Z,1017.36
2018-11-23T10:49:39.097Z,1017.3
2018-11-23T10:50:49.090Z,1017.32
2018-11-23T10:51:58.595Z,1017.24
2018-11-23T10:53:08.561Z,1017.26
2018-11-23T10:54:18.524Z,1017.19
2018-11-23T10:55:28.262Z,1017.14
2018-11-23T10:56:37.765Z,1017.14
2018-11-23T10:57:47.629Z,1017.14
2018-11-23T10:58:56.844Z,1017.08
2018-11-23T11:00:06.944Z,1017.07
2018-11-23T11:01:17.659Z,1017.07
2018-11-23T11:02:27.399Z,1017.04
2018-11-23T11:03:36.901Z,1017.02
2018-11-23T11:04:46.617Z,1017.07
2018-11-23T11:05:56.341Z,1017.03
2018-11-23T11:07:06.051Z,1017
2018-11-23T11:08:15.515Z,1017.03
2018-11-23T11:09:24.991Z,1017.02
2018-11-23T11:10:34.794Z,1017.03
2018-11-23T11:11:44.813Z,1017.01
2018-11-23T11:12:54.527Z,1017.05
2018-11-23T11:14:04.259Z,1017.05
2018-11-23T11:15:14.209Z,1017.05
2018-11-23T11:16:23.900Z,1017.04
2018-11-23T11:17:33.129Z,1017.04
2018-11-23T11:18:42.823Z,1017.03
2018-11-23T11:19:52.795Z,1016.98
2018-11-23T11:21:02.762Z,1016.99
2018-11-23T11:22:12.487Z,1016.95
2018-11-23T11:23:22.184Z,1016.96
2018-11-23T11:24:32.163Z,1016.92
2018-11-23T11:25:41.634Z,1016.89
2018-11-23T11:26:51.355Z,1016.88
2018-11-23T11:28:00.874Z,1016.86
2018-11-23T11:29:10.600Z,1016.9
2018-11-23T11:30:20.320Z,1016.86
2018-11-23T11:31:30.071Z,1016.86
2018-11-23T11:32:40.037Z,1016.89
2018-11-23T11:33:50.037Z,1016.96
2018-11-23T11:34:59.994Z,1016.88
2018-11-23T11:36:09.449Z,1016.91
2018-11-23T11:37:19.443Z,1016.86
2018-11-23T11:38:28.916Z,1016.83
2018-11-23T11:39:38.621Z,1016.82
2018-11-23T11:40:48.334Z,1016.79
2018-11-23T11:41:58.313Z,1016.79
2018-11-23T11:43:08.013Z,1016.77
2018-11-23T11:44:17.754Z,1016.71
2018-11-23T11:45:27.725Z,1016.74
2018-11-23T11:46:37.667Z,1016.69
2018-11-23T11:47:47.368Z,1016.7
2018-11-23T11:48:57.129Z,1016.68
2018-11-23T11:50:06.865Z,1016.66
2018-11-23T11:51:17.628Z,1016.62
2018-11-23T11:52:27.525Z,1016.52
2018-11-23T11:53:37.278Z,1016.54
2018-11-23T11:54:47.262Z,1016.53
2018-11-23T11:55:56.959Z,1016.54
2018-11-23T11:57:06.183Z,1016.54
2018-11-23T11:58:15.901Z,1016.57
2018-11-23T11:59:25.890Z,1016.56
2018-11-23T12:00:35.605Z,1016.57
2018-11-23T12:01:45.600Z,1016.63
2018-11-23T12:02:55.311Z,1016.54
2018-11-23T12:04:05.295Z,1016.54
2018-11-23T12:05:14.992Z,1016.51
2018-11-23T12:06:24.707Z,1016.54
2018-11-23T12:07:34.671Z,1016.53
2018-11-23T12:08:44.627Z,1016.48
2018-11-23T12:09:54.325Z,1016.5
2018-11-23T12:11:03.796Z,1016.48
2018-11-23T12:12:13.529Z,1016.49
2018-11-23T12:13:23.234Z,1016.46
2018-11-23T12:14:32.986Z,1016.41
2018-11-23T12:15:42.438Z,1016.43
2018-11-23T12:16:52.411Z,1016.41
2018-11-23T12:18:01.620Z,1016.43
2018-11-23T12:19:11.354Z,1016.4
2018-11-23T12:20:20.825Z,1016.39
2018-11-23T12:21:30.040Z,1016.4
2018-11-23T12:22:39.733Z,1016.39
2018-11-23T12:23:49.474Z,1016.36
2018-11-23T12:24:59.204Z,1016.36
2018-11-23T12:26:09.166Z,1016.29
2018-11-23T12:27:19.145Z,1016.32
2018-11-23T12:28:32.058Z,1016.28
2018-11-23T12:29:42.005Z,1016.3
2018-11-23T12:30:51.474Z,1016.29
2018-11-23T12:32:00.669Z,1016.26
2018-11-23T12:33:10.363Z,1016.3
2018-11-23T12:34:20.312Z,1016.24
2018-11-23T12:35:30.022Z,1016.23
2018-11-23T12:36:40.210Z,1016.26
2018-11-23T12:37:49.957Z,1016.22
2018-11-23T12:38:59.928Z,1016.17
2018-11-23T12:40:09.450Z,1016.22
2018-11-23T12:41:19.161Z,1016.14
2018-11-23T12:42:29.119Z,1016.15
2018-11-23T12:43:38.321Z,1016.14
2018-11-23T12:44:48.037Z,1016.13
2018-11-23T12:45:58.001Z,1016.12
2018-11-23T12:47:07.697Z,1016.11
2018-11-23T12:48:17.410Z,1016.1
2018-11-23T12:49:27.121Z,1016.09
2018-11-23T12:50:37.101Z,1016.07
2018-11-23T12:51:46.809Z,1016.06
2018-11-23T12:52:56.796Z,1016.04
2018-11-23T12:54:14.145Z,1016.03
2018-11-23T12:55:23.366Z,1015.98
2018-11-23T12:56:32.817Z,1016.04
2018-11-23T12:57:42.528Z,1015.99
2018-11-23T12:58:52.234Z,1016
2018-11-23T13:00:02.201Z,1015.97
2018-11-23T13:01:11.933Z,1015.96
2018-11-23T13:02:21.383Z,1015.94
2018-11-23T13:03:31.089Z,1015.92
2018-11-23T13:04:41.041Z,1015.92
2018-11-23T13:05:51.014Z,1015.91
2018-11-23T13:07:00.979Z,1015.92
2018-11-23T13:08:10.943Z,1015.89
2018-11-23T13:09:20.657Z,1015.9
2018-11-23T13:10:30.623Z,1015.9
2018-11-23T13:11:40.341Z,1015.92
2018-11-23T13:12:50.748Z,1015.88
2018-11-23T13:14:00.462Z,1015.8
2018-11-23T13:15:10.382Z,1015.8
2018-11-23T13:16:20.097Z,1015.83
2018-11-23T13:17:29.585Z,1015.82
2018-11-23T13:18:39.049Z,1015.83
2018-11-23T13:19:49.013Z,1015.82
2018-11-23T13:20:58.733Z,1015.8
2018-11-23T13:22:08.694Z,1015.78
2018-11-23T13:23:18.163Z,1015.75
2018-11-23T13:24:28.133Z,1015.78
2018-11-23T13:25:37.609Z,1015.79
2018-11-23T13:26:46.824Z,1015.77
2018-11-23T13:27:57.874Z,1015.79
2018-11-23T13:29:15.440Z,1015.79
2018-11-23T13:30:25.551Z,1015.78
2018-11-23T13:31:35.313Z,1015.76
2018-11-23T13:32:45.047Z,1015.79
2018-11-23T13:33:54.837Z,1015.76
2018-11-23T13:35:04.548Z,1015.75
2018-11-23T13:36:14.259Z,1015.77
2018-11-23T13:37:24.241Z,1015.75
2018-11-23T13:38:33.463Z,1015.76
2018-11-23T13:39:42.947Z,1015.78
2018-11-23T13:40:52.904Z,1015.76
2018-11-23T13:42:02.628Z,1015.74
2018-11-23T13:43:12.593Z,1015.74
2018-11-23T13:44:22.560Z,1015.76
2018-11-23T13:45:32.285Z,1015.77
2018-11-23T13:46:42.529Z,1015.75
2018-11-23T13:47:51.739Z,1015.76
2018-11-23T13:49:01.703Z,1015.83
2018-11-23T13:50:11.162Z,1015.81
2018-11-23T13:51:20.900Z,1015.84
2018-11-23T13:52:30.366Z,1015.77
2018-11-23T13:53:39.561Z,1015.81
2018-11-23T13:54:49.521Z,1015.79
2018-11-23T13:55:58.968Z,1015.79
2018-11-23T13:57:08.913Z,1015.81
2018-11-23T13:58:18.365Z,1015.79
2018-11-23T13:59:27.803Z,1015.8
2018-11-23T14:00:37.766Z,1015.77
2018-11-23T14:01:46.984Z,1015.78
2018-11-23T14:02:56.438Z,1015.76
2018-11-23T14:04:06.426Z,1015.75
2018-11-23T14:05:16.393Z,1015.76
2018-11-23T14:06:26.360Z,1015.71
2018-11-23T14:07:36.334Z,1015.71